East Orleans, MA

2:02 PM EST on December 26, 2014 (GMT -0500)
Chatham Municipal | Change Station
CLOSE
Current Station
Airport
Location: Chatham,
Elevation: 66 ft
Nearby Weather Stations

Elev 66 ft 41.69 °N, 69.99 °W | Updated 10 minutes ago

Clear
Clear
48 °F
Feels Like 48 °F
N
5
Wind Variable Wind from Variable

Today
High -- | Low -- °F
--% Chance of Precip.
Yesterday
High -- | Low -- °F
Precip. -- in
7:05 AM 4:15 PM
Waxing Crescent, 28% visible
Pressure 30.13 in
Visibility 10.0 miles
Clouds Clear
Dew Point 32 °F
Humidity 54%
Rainfall 0.00 in
Snow Depth Not available.
UV 1 out of 12
Pollen .10 out of 12
Air Quality Not available.
Flu Activity Not available.
METAR KCQX 261852Z AUTO VRB04KT 10SM CLR 09/00 A3012 RMK AO2 SLP202 T00890000

More Conditions Fewer Conditions

Pressure 30.13 in
Visibility 10.0 miles
Clouds Clear
Dew Point 32 °F
Humidity 54%
Rainfall 0.00 in
Snow Depth Not available.
UV 1 out of 12
Pollen .10 out of 12
Air Quality Not available.
Flu Activity Not available.
METAR KCQX 261852Z AUTO VRB04KT 10SM CLR 09/00 A3012 RMK AO2 SLP202 T00890000

More Conditions Fewer Conditions

10-Day Weather Forecast

Almanac

Astronomy

Dec. 26, 2014 Rise Set
Actual Time
Civil Twilight
Nautical Twilight
Astronomical Twilight
Moon
Length of Visible Light
Length of Day
Tomorrow will be .
, % of the Moon is Illuminated

Today's Extremes

State Highs State Lows

Community

WunderPhotos

Upload Photos

1,780,668 photos uploaded!

WunderBlogs® & News

Nearby

Air Quality

  Air Quality AQ Index Pollutant
Not available.

Snow Depth

Station Depth Elevation

Earthquake Activity

City Distance Mag. Time & Date
Minimum magnitude displayed is 2.5.

Coastal Water Temperatures

Place Temperature

Nearby Weather Stations